sensor_id;sensor_type;location;lat;lon;timestamp;P1;durP1;ratioP1;P2;durP2;ratioP2
54261;SDS011;40174;52.364;6.452;2023-08-20T00:01:00;4.97;;;1.30;;
54261;SDS011;40174;52.364;6.452;2023-08-20T00:03:29;7.88;;;3.30;;
54261;SDS011;40174;52.364;6.452;2023-08-20T00:05:56;11.77;;;4.90;;
54261;SDS011;40174;52.364;6.452;2023-08-20T00:08:23;23.05;;;9.63;;
54261;SDS011;40174;52.364;6.452;2023-08-20T00:10:50;6.35;;;3.33;;
54261;SDS011;40174;52.364;6.452;2023-08-20T00:13:18;4.32;;;1.73;;
54261;SDS011;40174;52.364;6.452;2023-08-20T00:15:44;5.18;;;1.85;;
54261;SDS011;40174;52.364;6.452;2023-08-20T00:18:12;7.30;;;2.63;;
54261;SDS011;40174;52.364;6.452;2023-08-20T00:20:39;7.38;;;4.13;;
54261;SDS011;40174;52.364;6.452;2023-08-20T00:23:06;10.43;;;4.57;;
54261;SDS011;40174;52.364;6.452;2023-08-20T00:25:34;42.85;;;20.05;;
54261;SDS011;40174;52.364;6.452;2023-08-20T00:28:01;52.03;;;24.77;;
54261;SDS011;40174;52.364;6.452;2023-08-20T00:30:29;39.67;;;18.15;;
54261;SDS011;40174;52.364;6.452;2023-08-20T00:32:56;37.63;;;17.15;;
54261;SDS011;40174;52.364;6.452;2023-08-20T00:35:23;19.52;;;9.57;;
54261;SDS011;40174;52.364;6.452;2023-08-20T00:37:49;5.38;;;2.60;;
54261;SDS011;40174;52.364;6.452;2023-08-20T00:40:17;8.38;;;2.70;;
54261;SDS011;40174;52.364;6.452;2023-08-20T00:42:44;6.32;;;2.83;;
54261;SDS011;40174;52.364;6.452;2023-08-20T00:45:10;16.17;;;4.70;;
54261;SDS011;40174;52.364;6.452;2023-08-20T00:47:38;20.90;;;9.40;;
54261;SDS011;40174;52.364;6.452;2023-08-20T00:50:06;8.55;;;3.80;;
54261;SDS011;40174;52.364;6.452;2023-08-20T00:52:34;7.53;;;2.58;;
54261;SDS011;40174;52.364;6.452;2023-08-20T00:55:02;5.05;;;2.28;;
54261;SDS011;40174;52.364;6.452;2023-08-20T00:57:35;6.15;;;1.98;;
54261;SDS011;40174;52.364;6.452;2023-08-20T01:00:03;7.85;;;2.13;;
54261;SDS011;40174;52.364;6.452;2023-08-20T01:02:48;15.23;;;4.75;;
54261;SDS011;40174;52.364;6.452;2023-08-20T01:05:16;22.17;;;8.82;;
54261;SDS011;40174;52.364;6.452;2023-08-20T01:07:46;29.13;;;11.20;;
54261;SDS011;40174;52.364;6.452;2023-08-20T01:10:21;29.20;;;12.35;;
54261;SDS011;40174;52.364;6.452;2023-08-20T01:12:53;20.20;;;9.77;;
54261;SDS011;40174;52.364;6.452;2023-08-20T01:15:20;14.05;;;6.45;;
54261;SDS011;40174;52.364;6.452;2023-08-20T01:17:48;10.02;;;3.15;;
54261;SDS011;40174;52.364;6.452;2023-08-20T01:20:16;9.10;;;3.80;;
54261;SDS011;40174;52.364;6.452;2023-08-20T01:25:45;32.20;;;13.55;;
54261;SDS011;40174;52.364;6.452;2023-08-20T01:28:22;9.15;;;3.83;;
54261;SDS011;40174;52.364;6.452;2023-08-20T01:30:51;10.23;;;3.53;;
54261;SDS011;40174;52.364;6.452;2023-08-20T01:33:20;15.20;;;5.65;;
54261;SDS011;40174;52.364;6.452;2023-08-20T01:35:55;9.30;;;3.83;;
54261;SDS011;40174;52.364;6.452;2023-08-20T01:38:23;11.77;;;5.18;;
54261;SDS011;40174;52.364;6.452;2023-08-20T01:41:07;16.30;;;5.75;;
54261;SDS011;40174;52.364;6.452;2023-08-20T01:43:36;30.13;;;12.43;;
54261;SDS011;40174;52.364;6.452;2023-08-20T01:46:03;15.98;;;5.03;;
54261;SDS011;40174;52.364;6.452;2023-08-20T01:48:30;9.70;;;4.05;;
54261;SDS011;40174;52.364;6.452;2023-08-20T01:50:56;12.90;;;5.85;;
54261;SDS011;40174;52.364;6.452;2023-08-20T01:53:23;21.83;;;9.02;;
54261;SDS011;40174;52.364;6.452;2023-08-20T01:55:50;12.20;;;4.72;;
54261;SDS011;40174;52.364;6.452;2023-08-20T01:58:16;13.20;;;6.03;;
54261;SDS011;40174;52.364;6.452;2023-08-20T02:00:46;15.93;;;6.90;;
54261;SDS011;40174;52.364;6.452;2023-08-20T02:03:12;12.57;;;6.82;;
54261;SDS011;40174;52.364;6.452;2023-08-20T02:05:39;13.65;;;4.78;;
54261;SDS011;40174;52.364;6.452;2023-08-20T02:08:08;25.92;;;10.85;;
54261;SDS011;40174;52.364;6.452;2023-08-20T02:10:36;37.10;;;14.60;;
54261;SDS011;40174;52.364;6.452;2023-08-20T02:13:04;20.25;;;8.95;;
54261;SDS011;40174;52.364;6.452;2023-08-20T02:15:32;56.88;;;29.55;;
54261;SDS011;40174;52.364;6.452;2023-08-20T02:18:00;22.50;;;10.38;;
54261;SDS011;40174;52.364;6.452;2023-08-20T02:20:28;17.25;;;8.65;;
54261;SDS011;40174;52.364;6.452;2023-08-20T02:22:55;18.75;;;7.38;;
54261;SDS011;40174;52.364;6.452;2023-08-20T02:25:22;17.35;;;6.65;;
54261;SDS011;40174;52.364;6.452;2023-08-20T02:27:53;13.07;;;5.88;;
54261;SDS011;40174;52.364;6.452;2023-08-20T02:30:19;38.03;;;17.55;;
54261;SDS011;40174;52.364;6.452;2023-08-20T02:32:46;12.20;;;5.20;;
54261;SDS011;40174;52.364;6.452;2023-08-20T02:35:14;10.43;;;3.60;;
54261;SDS011;40174;52.364;6.452;2023-08-20T02:37:42;8.35;;;3.72;;
54261;SDS011;40174;52.364;6.452;2023-08-20T02:40:10;12.90;;;3.88;;
54261;SDS011;40174;52.364;6.452;2023-08-20T02:42:39;7.97;;;3.17;;
54261;SDS011;40174;52.364;6.452;2023-08-20T02:45:07;11.13;;;4.22;;
54261;SDS011;40174;52.364;6.452;2023-08-20T02:47:35;47.08;;;15.50;;
54261;SDS011;40174;52.364;6.452;2023-08-20T02:50:02;15.73;;;6.57;;
54261;SDS011;40174;52.364;6.452;2023-08-20T02:52:32;14.25;;;4.93;;
54261;SDS011;40174;52.364;6.452;2023-08-20T02:54:59;15.18;;;4.95;;
54261;SDS011;40174;52.364;6.452;2023-08-20T02:57:25;11.57;;;4.00;;
54261;SDS011;40174;52.364;6.452;2023-08-20T02:59:52;22.10;;;8.68;;
54261;SDS011;40174;52.364;6.452;2023-08-20T03:02:19;13.50;;;4.55;;
54261;SDS011;40174;52.364;6.452;2023-08-20T03:04:45;12.15;;;4.70;;
54261;SDS011;40174;52.364;6.452;2023-08-20T03:07:12;8.85;;;3.70;;
54261;SDS011;40174;52.364;6.452;2023-08-20T03:09:40;16.13;;;5.55;;
54261;SDS011;40174;52.364;6.452;2023-08-20T03:12:07;8.80;;;3.22;;
54261;SDS011;40174;52.364;6.452;2023-08-20T03:14:34;7.65;;;2.95;;
54261;SDS011;40174;52.364;6.452;2023-08-20T03:17:00;5.38;;;2.50;;
54261;SDS011;40174;52.364;6.452;2023-08-20T03:19:29;5.82;;;2.45;;
54261;SDS011;40174;52.364;6.452;2023-08-20T03:21:59;4.50;;;2.42;;
54261;SDS011;40174;52.364;6.452;2023-08-20T03:24:26;6.30;;;2.75;;
54261;SDS011;40174;52.364;6.452;2023-08-20T03:26:54;8.50;;;2.65;;
54261;SDS011;40174;52.364;6.452;2023-08-20T03:29:20;8.73;;;3.25;;
54261;SDS011;40174;52.364;6.452;2023-08-20T03:31:47;6.55;;;2.40;;
54261;SDS011;40174;52.364;6.452;2023-08-20T03:34:14;6.43;;;2.67;;
54261;SDS011;40174;52.364;6.452;2023-08-20T03:36:40;6.38;;;2.40;;
54261;SDS011;40174;52.364;6.452;2023-08-20T03:39:07;6.32;;;2.67;;
54261;SDS011;40174;52.364;6.452;2023-08-20T03:41:35;7.28;;;2.97;;
54261;SDS011;40174;52.364;6.452;2023-08-20T03:44:03;6.90;;;2.92;;
54261;SDS011;40174;52.364;6.452;2023-08-20T03:46:30;7.53;;;2.40;;
54261;SDS011;40174;52.364;6.452;2023-08-20T03:48:57;5.35;;;2.58;;
54261;SDS011;40174;52.364;6.452;2023-08-20T03:51:23;7.80;;;3.28;;
54261;SDS011;40174;52.364;6.452;2023-08-20T03:53:50;7.50;;;2.88;;
54261;SDS011;40174;52.364;6.452;2023-08-20T03:56:16;6.50;;;3.05;;
54261;SDS011;40174;52.364;6.452;2023-08-20T03:58:43;9.10;;;2.75;;
54261;SDS011;40174;52.364;6.452;2023-08-20T04:01:11;6.40;;;2.83;;
54261;SDS011;40174;52.364;6.452;2023-08-20T04:03:38;10.73;;;3.08;;
54261;SDS011;40174;52.364;6.452;2023-08-20T04:06:04;6.63;;;2.90;;
54261;SDS011;40174;52.364;6.452;2023-08-20T04:08:32;7.13;;;2.97;;
54261;SDS011;40174;52.364;6.452;2023-08-20T04:10:59;7.53;;;3.38;;
54261;SDS011;40174;52.364;6.452;2023-08-20T04:13:27;6.32;;;2.65;;
54261;SDS011;40174;52.364;6.452;2023-08-20T04:15:54;11.15;;;3.60;;
54261;SDS011;40174;52.364;6.452;2023-08-20T04:18:22;5.72;;;2.60;;
54261;SDS011;40174;52.364;6.452;2023-08-20T04:20:50;6.65;;;2.90;;
54261;SDS011;40174;52.364;6.452;2023-08-20T04:23:18;6.25;;;2.97;;
54261;SDS011;40174;52.364;6.452;2023-08-20T04:25:45;6.60;;;2.90;;
54261;SDS011;40174;52.364;6.452;2023-08-20T04:28:14;7.45;;;2.88;;
54261;SDS011;40174;52.364;6.452;2023-08-20T04:30:41;8.13;;;3.13;;
54261;SDS011;40174;52.364;6.452;2023-08-20T04:33:09;8.88;;;3.10;;
54261;SDS011;40174;52.364;6.452;2023-08-20T04:35:38;7.15;;;2.72;;
54261;SDS011;40174;52.364;6.452;2023-08-20T04:38:06;6.70;;;2.80;;
54261;SDS011;40174;52.364;6.452;2023-08-20T04:40:33;6.43;;;3.00;;
54261;SDS011;40174;52.364;6.452;2023-08-20T04:43:00;5.68;;;2.55;;
54261;SDS011;40174;52.364;6.452;2023-08-20T04:45:27;7.75;;;3.03;;
54261;SDS011;40174;52.364;6.452;2023-08-20T04:47:55;7.97;;;2.50;;
54261;SDS011;40174;52.364;6.452;2023-08-20T04:50:22;6.60;;;2.90;;
54261;SDS011;40174;52.364;6.452;2023-08-20T04:52:50;7.15;;;2.88;;
54261;SDS011;40174;52.364;6.452;2023-08-20T04:55:17;10.20;;;3.03;;
54261;SDS011;40174;52.364;6.452;2023-08-20T04:57:44;7.47;;;3.08;;
54261;SDS011;40174;52.364;6.452;2023-08-20T05:00:11;6.85;;;2.85;;
54261;SDS011;40174;52.364;6.452;2023-08-20T05:03:01;5.95;;;2.55;;
54261;SDS011;40174;52.364;6.452;2023-08-20T05:05:28;12.15;;;3.63;;
54261;SDS011;40174;52.364;6.452;2023-08-20T05:07:57;9.80;;;3.35;;
54261;SDS011;40174;52.364;6.452;2023-08-20T05:10:23;7.05;;;3.08;;
54261;SDS011;40174;52.364;6.452;2023-08-20T05:12:50;7.82;;;3.03;;
54261;SDS011;40174;52.364;6.452;2023-08-20T05:15:17;9.57;;;3.28;;
54261;SDS011;40174;52.364;6.452;2023-08-20T05:17:44;6.90;;;3.17;;
54261;SDS011;40174;52.364;6.452;2023-08-20T05:20:11;9.57;;;3.75;;
54261;SDS011;40174;52.364;6.452;2023-08-20T05:22:38;10.00;;;3.38;;
54261;SDS011;40174;52.364;6.452;2023-08-20T05:25:07;8.10;;;3.25;;
54261;SDS011;40174;52.364;6.452;2023-08-20T05:27:35;9.25;;;3.90;;
54261;SDS011;40174;52.364;6.452;2023-08-20T05:30:01;8.68;;;2.63;;
54261;SDS011;40174;52.364;6.452;2023-08-20T05:32:29;13.57;;;4.20;;
54261;SDS011;40174;52.364;6.452;2023-08-20T05:34:56;9.45;;;3.65;;
54261;SDS011;40174;52.364;6.452;2023-08-20T05:37:23;9.40;;;3.60;;
54261;SDS011;40174;52.364;6.452;2023-08-20T05:39:50;13.90;;;3.80;;
54261;SDS011;40174;52.364;6.452;2023-08-20T05:42:19;7.57;;;3.35;;
54261;SDS011;40174;52.364;6.452;2023-08-20T05:44:52;13.57;;;4.20;;
54261;SDS011;40174;52.364;6.452;2023-08-20T05:47:24;12.35;;;3.30;;
54261;SDS011;40174;52.364;6.452;2023-08-20T05:49:51;8.27;;;3.72;;
54261;SDS011;40174;52.364;6.452;2023-08-20T05:52:18;9.25;;;3.17;;
54261;SDS011;40174;52.364;6.452;2023-08-20T05:54:44;11.25;;;3.90;;
54261;SDS011;40174;52.364;6.452;2023-08-20T05:57:12;10.02;;;4.13;;
54261;SDS011;40174;52.364;6.452;2023-08-20T05:59:42;13.32;;;4.38;;
54261;SDS011;40174;52.364;6.452;2023-08-20T06:02:09;10.30;;;4.50;;
54261;SDS011;40174;52.364;6.452;2023-08-20T06:04:35;11.85;;;5.00;;
54261;SDS011;40174;52.364;6.452;2023-08-20T06:07:02;12.70;;;4.60;;
54261;SDS011;40174;52.364;6.452;2023-08-20T06:09:28;9.77;;;4.15;;
54261;SDS011;40174;52.364;6.452;2023-08-20T06:11:55;12.80;;;4.75;;
54261;SDS011;40174;52.364;6.452;2023-08-20T06:14:22;11.20;;;4.47;;
54261;SDS011;40174;52.364;6.452;2023-08-20T06:16:50;10.93;;;4.15;;
54261;SDS011;40174;52.364;6.452;2023-08-20T06:19:16;11.50;;;3.95;;
54261;SDS011;40174;52.364;6.452;2023-08-20T06:21:43;7.95;;;3.70;;
54261;SDS011;40174;52.364;6.452;2023-08-20T06:24:10;13.13;;;4.00;;
54261;SDS011;40174;52.364;6.452;2023-08-20T06:26:36;9.85;;;3.30;;
54261;SDS011;40174;52.364;6.452;2023-08-20T06:29:03;10.63;;;3.30;;
54261;SDS011;40174;52.364;6.452;2023-08-20T06:31:30;9.80;;;3.30;;
54261;SDS011;40174;52.364;6.452;2023-08-20T06:33:58;8.75;;;2.85;;
54261;SDS011;40174;52.364;6.452;2023-08-20T06:36:24;9.48;;;3.40;;
54261;SDS011;40174;52.364;6.452;2023-08-20T06:38:51;16.65;;;3.40;;
54261;SDS011;40174;52.364;6.452;2023-08-20T06:41:17;9.25;;;2.92;;
54261;SDS011;40174;52.364;6.452;2023-08-20T06:43:44;11.20;;;3.25;;
54261;SDS011;40174;52.364;6.452;2023-08-20T06:46:11;6.35;;;2.50;;
54261;SDS011;40174;52.364;6.452;2023-08-20T06:48:37;10.02;;;2.67;;
54261;SDS011;40174;52.364;6.452;2023-08-20T06:51:14;4.75;;;1.92;;
54261;SDS011;40174;52.364;6.452;2023-08-20T06:53:41;7.40;;;2.13;;
54261;SDS011;40174;52.364;6.452;2023-08-20T06:56:08;5.35;;;2.47;;
54261;SDS011;40174;52.364;6.452;2023-08-20T06:58:36;9.57;;;2.78;;
54261;SDS011;40174;52.364;6.452;2023-08-20T07:01:04;11.20;;;2.55;;
54261;SDS011;40174;52.364;6.452;2023-08-20T07:03:33;9.35;;;2.67;;
54261;SDS011;40174;52.364;6.452;2023-08-20T07:06:00;3.92;;;1.90;;
54261;SDS011;40174;52.364;6.452;2023-08-20T07:08:28;8.98;;;2.53;;
54261;SDS011;40174;52.364;6.452;2023-08-20T07:10:55;8.45;;;2.15;;
54261;SDS011;40174;52.364;6.452;2023-08-20T07:13:22;7.18;;;2.08;;
54261;SDS011;40174;52.364;6.452;2023-08-20T07:15:49;7.55;;;2.15;;
54261;SDS011;40174;52.364;6.452;2023-08-20T07:18:15;7.47;;;1.67;;
54261;SDS011;40174;52.364;6.452;2023-08-20T07:20:42;9.02;;;1.70;;
54261;SDS011;40174;52.364;6.452;2023-08-20T07:23:09;6.82;;;2.13;;
54261;SDS011;40174;52.364;6.452;2023-08-20T07:25:38;7.05;;;2.15;;
54261;SDS011;40174;52.364;6.452;2023-08-20T07:28:06;5.18;;;1.95;;
54261;SDS011;40174;52.364;6.452;2023-08-20T07:30:34;4.57;;;2.10;;
54261;SDS011;40174;52.364;6.452;2023-08-20T07:33:00;3.88;;;1.92;;
54261;SDS011;40174;52.364;6.452;2023-08-20T07:35:27;8.68;;;2.35;;
54261;SDS011;40174;52.364;6.452;2023-08-20T07:37:54;4.60;;;1.42;;
54261;SDS011;40174;52.364;6.452;2023-08-20T07:40:20;3.10;;;1.90;;
54261;SDS011;40174;52.364;6.452;2023-08-20T07:42:48;3.17;;;1.30;;
54261;SDS011;40174;52.364;6.452;2023-08-20T07:45:16;5.32;;;1.30;;
54261;SDS011;40174;52.364;6.452;2023-08-20T07:47:42;6.40;;;1.50;;
54261;SDS011;40174;52.364;6.452;2023-08-20T07:50:09;4.25;;;1.20;;
54261;SDS011;40174;52.364;6.452;2023-08-20T07:52:36;5.47;;;1.23;;
54261;SDS011;40174;52.364;6.452;2023-08-20T07:55:03;4.80;;;1.17;;
54261;SDS011;40174;52.364;6.452;2023-08-20T07:57:30;4.30;;;0.80;;
54261;SDS011;40174;52.364;6.452;2023-08-20T07:59:58;3.63;;;0.70;;
54261;SDS011;40174;52.364;6.452;2023-08-20T08:02:24;2.85;;;0.70;;
54261;SDS011;40174;52.364;6.452;2023-08-20T08:04:51;2.33;;;0.70;;
54261;SDS011;40174;52.364;6.452;2023-08-20T08:07:18;4.70;;;0.70;;
54261;SDS011;40174;52.364;6.452;2023-08-20T08:09:44;5.03;;;0.70;;
54261;SDS011;40174;52.364;6.452;2023-08-20T08:12:11;2.45;;;0.70;;
54261;SDS011;40174;52.364;6.452;2023-08-20T08:14:38;5.57;;;1.30;;
54261;SDS011;40174;52.364;6.452;2023-08-20T08:17:06;1.70;;;0.35;;
54261;SDS011;40174;52.364;6.452;2023-08-20T08:19:33;3.05;;;0.77;;
54261;SDS011;40174;52.364;6.452;2023-08-20T08:21:59;3.53;;;0.75;;
54261;SDS011;40174;52.364;6.452;2023-08-20T08:24:26;4.53;;;0.70;;
54261;SDS011;40174;52.364;6.452;2023-08-20T08:26:53;0.73;;;0.45;;
54261;SDS011;40174;52.364;6.452;2023-08-20T08:29:19;1.15;;;0.40;;
54261;SDS011;40174;52.364;6.452;2023-08-20T08:31:46;2.80;;;0.80;;
54261;SDS011;40174;52.364;6.452;2023-08-20T08:34:14;5.15;;;0.75;;
54261;SDS011;40174;52.364;6.452;2023-08-20T08:36:41;0.93;;;0.30;;
54261;SDS011;40174;52.364;6.452;2023-08-20T08:39:07;0.85;;;0.45;;
54261;SDS011;40174;52.364;6.452;2023-08-20T08:41:34;3.00;;;0.80;;
54261;SDS011;40174;52.364;6.452;2023-08-20T08:44:04;2.40;;;0.70;;
54261;SDS011;40174;52.364;6.452;2023-08-20T08:46:34;2.08;;;0.50;;
54261;SDS011;40174;52.364;6.452;2023-08-20T08:49:01;3.30;;;0.60;;
54261;SDS011;40174;52.364;6.452;2023-08-20T08:51:30;4.50;;;0.70;;
54261;SDS011;40174;52.364;6.452;2023-08-20T08:53:58;1.38;;;0.55;;
54261;SDS011;40174;52.364;6.452;2023-08-20T08:56:25;1.05;;;0.43;;
54261;SDS011;40174;52.364;6.452;2023-08-20T08:58:52;2.10;;;0.50;;
54261;SDS011;40174;52.364;6.452;2023-08-20T09:01:19;1.70;;;0.35;;
54261;SDS011;40174;52.364;6.452;2023-08-20T09:03:46;1.95;;;0.60;;
54261;SDS011;40174;52.364;6.452;2023-08-20T09:06:13;0.30;;;0.28;;
54261;SDS011;40174;52.364;6.452;2023-08-20T09:08:41;1.83;;;0.45;;
54261;SDS011;40174;52.364;6.452;2023-08-20T09:11:08;1.50;;;0.50;;
54261;SDS011;40174;52.364;6.452;2023-08-20T09:13:35;4.22;;;0.70;;
54261;SDS011;40174;52.364;6.452;2023-08-20T09:16:03;1.65;;;0.47;;
54261;SDS011;40174;52.364;6.452;2023-08-20T09:18:30;2.22;;;0.63;;
54261;SDS011;40174;52.364;6.452;2023-08-20T09:20:57;2.17;;;0.80;;
54261;SDS011;40174;52.364;6.452;2023-08-20T09:23:26;1.25;;;0.50;;
54261;SDS011;40174;52.364;6.452;2023-08-20T09:25:57;1.27;;;0.30;;
54261;SDS011;40174;52.364;6.452;2023-08-20T09:28:23;1.33;;;0.50;;
54261;SDS011;40174;52.364;6.452;2023-08-20T09:30:56;0.88;;;0.45;;
54261;SDS011;40174;52.364;6.452;2023-08-20T09:33:26;1.15;;;0.40;;
54261;SDS011;40174;52.364;6.452;2023-08-20T09:35:53;2.60;;;0.50;;
54261;SDS011;40174;52.364;6.452;2023-08-20T09:38:20;0.63;;;0.30;;
54261;SDS011;40174;52.364;6.452;2023-08-20T09:40:48;4.05;;;0.60;;
54261;SDS011;40174;52.364;6.452;2023-08-20T09:43:18;1.45;;;0.50;;
54261;SDS011;40174;52.364;6.452;2023-08-20T09:45:46;1.70;;;0.60;;
54261;SDS011;40174;52.364;6.452;2023-08-20T09:48:14;2.63;;;0.88;;
54261;SDS011;40174;52.364;6.452;2023-08-20T09:50:44;2.97;;;0.40;;
54261;SDS011;40174;52.364;6.452;2023-08-20T09:53:16;1.55;;;0.40;;
54261;SDS011;40174;52.364;6.452;2023-08-20T09:55:48;2.40;;;0.57;;
54261;SDS011;40174;52.364;6.452;2023-08-20T09:58:19;1.52;;;0.73;;
54261;SDS011;40174;52.364;6.452;2023-08-20T10:00:51;1.73;;;0.55;;
54261;SDS011;40174;52.364;6.452;2023-08-20T10:03:18;1.35;;;0.50;;
54261;SDS011;40174;52.364;6.452;2023-08-20T10:05:46;1.77;;;0.70;;
54261;SDS011;40174;52.364;6.452;2023-08-20T10:08:14;0.60;;;0.30;;
54261;SDS011;40174;52.364;6.452;2023-08-20T10:10:41;2.72;;;0.50;;
54261;SDS011;40174;52.364;6.452;2023-08-20T10:13:08;2.15;;;0.50;;
54261;SDS011;40174;52.364;6.452;2023-08-20T10:15:36;1.83;;;1.15;;
54261;SDS011;40174;52.364;6.452;2023-08-20T10:18:04;0.93;;;0.40;;
54261;SDS011;40174;52.364;6.452;2023-08-20T10:20:31;2.03;;;0.40;;
54261;SDS011;40174;52.364;6.452;2023-08-20T10:22:59;1.02;;;0.40;;
54261;SDS011;40174;52.364;6.452;2023-08-20T10:25:29;2.80;;;0.50;;
54261;SDS011;40174;52.364;6.452;2023-08-20T10:28:11;1.80;;;0.60;;
54261;SDS011;40174;52.364;6.452;2023-08-20T10:33:31;1.73;;;0.30;;
54261;SDS011;40174;52.364;6.452;2023-08-20T10:35:58;0.40;;;0.40;;
54261;SDS011;40174;52.364;6.452;2023-08-20T10:38:35;1.02;;;0.52;;
54261;SDS011;40174;52.364;6.452;2023-08-20T10:41:02;0.45;;;0.38;;
54261;SDS011;40174;52.364;6.452;2023-08-20T10:43:32;2.28;;;0.50;;
54261;SDS011;40174;52.364;6.452;2023-08-20T10:46:05;3.30;;;0.75;;
54261;SDS011;40174;52.364;6.452;2023-08-20T10:48:32;0.70;;;0.60;;
54261;SDS011;40174;52.364;6.452;2023-08-20T10:51:05;1.20;;;0.50;;
54261;SDS011;40174;52.364;6.452;2023-08-20T10:53:35;0.95;;;0.30;;
54261;SDS011;40174;52.364;6.452;2023-08-20T10:56:09;2.33;;;0.40;;
54261;SDS011;40174;52.364;6.452;2023-08-20T10:58:38;1.65;;;0.45;;
54261;SDS011;40174;52.364;6.452;2023-08-20T11:01:13;1.35;;;0.40;;
54261;SDS011;40174;52.364;6.452;2023-08-20T11:03:41;0.10;;;0.10;;
54261;SDS011;40174;52.364;6.452;2023-08-20T11:06:08;0.75;;;0.52;;
54261;SDS011;40174;52.364;6.452;2023-08-20T11:08:35;2.40;;;0.30;;
54261;SDS011;40174;52.364;6.452;2023-08-20T11:11:02;3.10;;;0.75;;
54261;SDS011;40174;52.364;6.452;2023-08-20T11:13:29;0.73;;;0.32;;
54261;SDS011;40174;52.364;6.452;2023-08-20T11:15:58;6.43;;;1.85;;
54261;SDS011;40174;52.364;6.452;2023-08-20T11:18:26;2.38;;;0.55;;
54261;SDS011;40174;52.364;6.452;2023-08-20T11:20:53;0.82;;;0.35;;
54261;SDS011;40174;52.364;6.452;2023-08-20T11:23:20;2.08;;;0.40;;
54261;SDS011;40174;52.364;6.452;2023-08-20T11:25:46;0.93;;;0.30;;
54261;SDS011;40174;52.364;6.452;2023-08-20T11:28:13;1.88;;;0.43;;
54261;SDS011;40174;52.364;6.452;2023-08-20T11:30:40;3.20;;;0.30;;
54261;SDS011;40174;52.364;6.452;2023-08-20T11:33:06;2.08;;;0.50;;
54261;SDS011;40174;52.364;6.452;2023-08-20T11:35:35;0.65;;;0.28;;
54261;SDS011;40174;52.364;6.452;2023-08-20T11:38:02;2.13;;;0.32;;
54261;SDS011;40174;52.364;6.452;2023-08-20T11:40:29;0.77;;;0.40;;
54261;SDS011;40174;52.364;6.452;2023-08-20T11:42:56;1.48;;;0.52;;
54261;SDS011;40174;52.364;6.452;2023-08-20T11:45:23;0.40;;;0.25;;
54261;SDS011;40174;52.364;6.452;2023-08-20T11:47:49;0.65;;;0.20;;
54261;SDS011;40174;52.364;6.452;2023-08-20T11:50:22;0.63;;;0.30;;
54261;SDS011;40174;52.364;6.452;2023-08-20T11:52:51;1.02;;;0.20;;
54261;SDS011;40174;52.364;6.452;2023-08-20T11:55:21;1.10;;;0.40;;
54261;SDS011;40174;52.364;6.452;2023-08-20T11:57:49;1.48;;;0.30;;
54261;SDS011;40174;52.364;6.452;2023-08-20T12:00:23;2.70;;;0.55;;
54261;SDS011;40174;52.364;6.452;2023-08-20T12:05:18;1.60;;;0.30;;
54261;SDS011;40174;52.364;6.452;2023-08-20T12:07:55;3.97;;;0.40;;
54261;SDS011;40174;52.364;6.452;2023-08-20T12:10:23;3.92;;;0.55;;
54261;SDS011;40174;52.364;6.452;2023-08-20T12:12:50;0.32;;;0.20;;
54261;SDS011;40174;52.364;6.452;2023-08-20T12:15:17;3.08;;;0.45;;
54261;SDS011;40174;52.364;6.452;2023-08-20T12:17:44;3.20;;;0.47;;
54261;SDS011;40174;52.364;6.452;2023-08-20T12:20:21;3.50;;;0.38;;
54261;SDS011;40174;52.364;6.452;2023-08-20T12:22:48;0.98;;;0.35;;
54261;SDS011;40174;52.364;6.452;2023-08-20T12:25:16;1.27;;;0.38;;
54261;SDS011;40174;52.364;6.452;2023-08-20T12:27:44;3.28;;;0.38;;
54261;SDS011;40174;52.364;6.452;2023-08-20T12:30:11;1.35;;;0.32;;
54261;SDS011;40174;52.364;6.452;2023-08-20T12:32:38;1.45;;;0.28;;
54261;SDS011;40174;52.364;6.452;2023-08-20T12:35:05;1.35;;;0.30;;
54261;SDS011;40174;52.364;6.452;2023-08-20T12:37:32;0.30;;;0.30;;
54261;SDS011;40174;52.364;6.452;2023-08-20T12:39:59;1.27;;;0.30;;
54261;SDS011;40174;52.364;6.452;2023-08-20T12:42:27;1.08;;;0.47;;
54261;SDS011;40174;52.364;6.452;2023-08-20T12:44:54;0.65;;;0.32;;
54261;SDS011;40174;52.364;6.452;2023-08-20T12:47:21;0.68;;;0.22;;
54261;SDS011;40174;52.364;6.452;2023-08-20T12:49:47;1.02;;;0.30;;
54261;SDS011;40174;52.364;6.452;2023-08-20T12:52:14;2.38;;;0.45;;
54261;SDS011;40174;52.364;6.452;2023-08-20T12:54:41;0.40;;;0.20;;
54261;SDS011;40174;52.364;6.452;2023-08-20T12:57:08;0.82;;;0.40;;
54261;SDS011;40174;52.364;6.452;2023-08-20T12:59:35;2.33;;;0.40;;
54261;SDS011;40174;52.364;6.452;2023-08-20T13:02:02;2.05;;;0.40;;
54261;SDS011;40174;52.364;6.452;2023-08-20T13:04:29;2.65;;;0.45;;
54261;SDS011;40174;52.364;6.452;2023-08-20T13:06:56;3.15;;;0.70;;
54261;SDS011;40174;52.364;6.452;2023-08-20T13:09:23;2.65;;;0.85;;
54261;SDS011;40174;52.364;6.452;2023-08-20T13:11:51;1.90;;;0.40;;
54261;SDS011;40174;52.364;6.452;2023-08-20T13:14:20;2.40;;;0.55;;
54261;SDS011;40174;52.364;6.452;2023-08-20T13:16:48;4.43;;;0.40;;
54261;SDS011;40174;52.364;6.452;2023-08-20T13:19:15;1.90;;;0.40;;
54261;SDS011;40174;52.364;6.452;2023-08-20T13:21:42;0.85;;;0.50;;
54261;SDS011;40174;52.364;6.452;2023-08-20T13:24:09;2.17;;;0.32;;
54261;SDS011;40174;52.364;6.452;2023-08-20T13:26:36;4.70;;;0.63;;
54261;SDS011;40174;52.364;6.452;2023-08-20T13:29:03;2.50;;;0.50;;
54261;SDS011;40174;52.364;6.452;2023-08-20T13:31:29;0.93;;;0.30;;
54261;SDS011;40174;52.364;6.452;2023-08-20T13:33:57;2.05;;;0.95;;
54261;SDS011;40174;52.364;6.452;2023-08-20T13:36:24;1.45;;;0.20;;
54261;SDS011;40174;52.364;6.452;2023-08-20T13:38:51;1.02;;;0.40;;
54261;SDS011;40174;52.364;6.452;2023-08-20T13:41:17;1.90;;;0.35;;
54261;SDS011;40174;52.364;6.452;2023-08-20T13:43:44;1.25;;;0.30;;
54261;SDS011;40174;52.364;6.452;2023-08-20T13:46:11;1.63;;;0.50;;
54261;SDS011;40174;52.364;6.452;2023-08-20T13:48:37;0.82;;;0.25;;
54261;SDS011;40174;52.364;6.452;2023-08-20T13:51:05;2.15;;;0.43;;
54261;SDS011;40174;52.364;6.452;2023-08-20T13:53:32;2.90;;;0.30;;
54261;SDS011;40174;52.364;6.452;2023-08-20T13:55:59;2.10;;;0.55;;
54261;SDS011;40174;52.364;6.452;2023-08-20T13:58:25;1.58;;;0.25;;
54261;SDS011;40174;52.364;6.452;2023-08-20T14:00:52;0.25;;;0.22;;
54261;SDS011;40174;52.364;6.452;2023-08-20T14:03:19;1.05;;;0.40;;
54261;SDS011;40174;52.364;6.452;2023-08-20T14:05:45;1.90;;;0.73;;
54261;SDS011;40174;52.364;6.452;2023-08-20T14:08:14;0.45;;;0.40;;
54261;SDS011;40174;52.364;6.452;2023-08-20T14:10:40;1.63;;;0.70;;
54261;SDS011;40174;52.364;6.452;2023-08-20T14:13:07;1.85;;;0.35;;
54261;SDS011;40174;52.364;6.452;2023-08-20T14:15:34;1.58;;;0.50;;
54261;SDS011;40174;52.364;6.452;2023-08-20T14:18:02;2.10;;;0.47;;
54261;SDS011;40174;52.364;6.452;2023-08-20T14:20:29;2.58;;;0.50;;
54261;SDS011;40174;52.364;6.452;2023-08-20T14:22:55;3.33;;;0.40;;
54261;SDS011;40174;52.364;6.452;2023-08-20T14:25:23;2.05;;;0.50;;
54261;SDS011;40174;52.364;6.452;2023-08-20T14:27:50;2.33;;;0.73;;
54261;SDS011;40174;52.364;6.452;2023-08-20T14:30:17;2.35;;;0.50;;
54261;SDS011;40174;52.364;6.452;2023-08-20T14:32:43;1.42;;;0.45;;
54261;SDS011;40174;52.364;6.452;2023-08-20T14:35:11;3.47;;;0.50;;
54261;SDS011;40174;52.364;6.452;2023-08-20T14:37:38;0.82;;;0.38;;
54261;SDS011;40174;52.364;6.452;2023-08-20T14:40:05;3.17;;;0.70;;
54261;SDS011;40174;52.364;6.452;2023-08-20T14:42:33;2.85;;;0.52;;
54261;SDS011;40174;52.364;6.452;2023-08-20T14:45:00;1.98;;;0.68;;
54261;SDS011;40174;52.364;6.452;2023-08-20T14:47:28;2.53;;;0.40;;
54261;SDS011;40174;52.364;6.452;2023-08-20T14:49:55;3.67;;;0.60;;
54261;SDS011;40174;52.364;6.452;2023-08-20T14:52:22;1.35;;;0.45;;
54261;SDS011;40174;52.364;6.452;2023-08-20T14:54:49;0.90;;;0.30;;